Time;durP1;ratioP1;P1;durP2;ratioP2;P2;SDS_P1;SDS_P2;PMS_P1;PMS_P2;Temp;Humidity;BMP_temperature;BMP_pressure;BME280_temperature;BME280_humidity;BME280_pressure;Samples;Min_cycle;Max_cycle;Signal;HPM_P1;HPM_P2
2023/09/12 00:01:32;;;;;;;12.83;8.87;;;26.20;95.70;;;;;;5022006;28;20184;-75
2023/09/12 00:03:58;;;;;;;11.20;9.23;;;26.20;95.90;;;;;;5020560;28;20548;-75
2023/09/12 00:06:23;;;;;;;10.07;8.60;;;26.10;96.10;;;;;;5020837;28;20943;-74
2023/09/12 00:08:49;;;;;;;12.80;9.67;;;26.10;96.60;;;;;;5020908;28;20458;-75
2023/09/12 00:11:15;;;;;;;13.83;8.90;;;26.00;96.60;;;;;;5023598;28;20234;-75
2023/09/12 00:13:41;;;;;;;15.80;9.77;;;26.00;96.70;;;;;;5024012;28;20290;-75
2023/09/12 00:16:09;;;;;;;12.80;9.00;;;26.00;96.80;;;;;;5024252;28;20190;-75
2023/09/12 00:18:35;;;;;;;10.43;9.37;;;26.00;96.90;;;;;;5017439;28;20438;-75
2023/09/12 00:21:01;;;;;;;11.10;9.70;;;25.90;96.90;;;;;;5024183;28;21065;-75
2023/09/12 00:23:27;;;;;;;13.40;9.37;;;25.90;97.10;;;;;;5005281;28;20443;-75
2023/09/12 00:25:52;;;;;;;10.23;8.37;;;25.80;97.20;;;;;;5022337;28;20211;-75
2023/09/12 00:28:19;;;;;;;8.70;7.87;;;25.80;97.30;;;;;;5009841;28;20757;-75
2023/09/12 00:30:44;;;;;;;9.60;8.60;;;25.70;97.50;;;;;;5021114;28;20269;-74
2023/09/12 00:33:10;;;;;;;15.13;9.40;;;25.70;97.70;;;;;;5021779;28;20498;-74
2023/09/12 00:35:35;;;;;;;12.80;8.93;;;25.60;97.80;;;;;;5024835;28;20283;-74
2023/09/12 00:38:01;;;;;;;11.10;9.20;;;25.60;98.10;;;;;;5026235;28;20181;-74
2023/09/12 00:40:27;;;;;;;13.90;8.97;;;25.50;98.40;;;;;;5022994;28;20200;-74
2023/09/12 00:42:52;;;;;;;10.27;8.80;;;25.50;98.40;;;;;;5019490;28;20219;-74
2023/09/12 00:45:18;;;;;;;12.03;9.47;;;25.50;98.70;;;;;;5023715;28;20645;-74
2023/09/12 00:47:45;;;;;;;9.80;8.77;;;25.40;98.80;;;;;;5024502;28;20176;-74
2023/09/12 00:50:12;;;;;;;10.10;8.70;;;25.40;99.00;;;;;;5023272;28;20187;-74
2023/09/12 00:52:39;;;;;;;11.47;9.20;;;25.30;99.30;;;;;;5023812;28;20483;-74
2023/09/12 00:55:05;;;;;;;10.57;8.70;;;25.20;99.30;;;;;;5028966;28;20415;-74
2023/09/12 00:57:33;;;;;;;11.13;9.87;;;25.20;99.40;;;;;;5022934;28;20479;-74
2023/09/12 01:00:01;;;;;;;18.07;9.17;;;25.20;99.50;;;;;;5026393;28;20789;-74
2023/09/12 01:02:27;;;;;;;11.77;8.70;;;25.20;99.90;;;;;;5024831;28;20940;-74
2023/09/12 01:04:53;;;;;;;10.63;8.00;;;25.20;99.90;;;;;;5027828;28;20466;-75
2023/09/12 01:07:18;;;;;;;13.23;9.33;;;25.20;99.90;;;;;;5024721;28;20215;-74
2023/09/12 01:09:44;;;;;;;15.27;8.77;;;25.10;99.90;;;;;;5026822;28;20196;-74
2023/09/12 01:12:14;;;;;;;13.83;9.77;;;25.10;99.90;;;;;;5024674;28;20219;-74
2023/09/12 01:14:40;;;;;;;10.40;9.30;;;25.10;99.90;;;;;;5029051;28;20452;-74
2023/09/12 01:17:05;;;;;;;11.13;10.00;;;25.00;99.90;;;;;;5041892;28;20438;-74
2023/09/12 01:19:31;;;;;;;13.20;10.27;;;25.00;99.90;;;;;;5052002;28;20235;-74
2023/09/12 01:22:10;;;;;;;12.63;9.53;;;25.00;99.90;;;;;;5070415;28;20264;-74
2023/09/12 01:24:59;;;;;;;11.00;8.80;;;25.00;99.90;;;;;;5050055;28;20236;-74
2023/09/12 01:27:32;;;;;;;18.40;9.07;;;24.90;99.90;;;;;;5066053;28;20437;-74
2023/09/12 01:30:00;;;;;;;16.27;9.70;;;24.90;99.90;;;;;;5054976;28;20438;-74
2023/09/12 01:32:27;;;;;;;12.07;9.40;;;24.90;99.90;;;;;;5050289;28;20467;-74
2023/09/12 01:34:53;;;;;;;10.97;9.20;;;24.90;99.90;;;;;;5043073;28;20748;-74
2023/09/12 01:37:19;;;;;;;9.83;8.93;;;24.90;99.90;;;;;;5018972;28;20428;-74
2023/09/12 01:39:44;;;;;;;10.90;9.90;;;24.90;99.90;;;;;;5030592;28;20200;-75
2023/09/12 01:42:14;;;;;;;10.10;8.97;;;24.80;99.90;;;;;;5030521;28;20296;-76
2023/09/12 01:44:42;;;;;;;11.77;9.30;;;24.70;99.90;;;;;;5024946;28;20527;-74
2023/09/12 01:47:12;;;;;;;11.07;10.00;;;24.70;99.90;;;;;;5029903;28;20480;-74
2023/09/12 01:49:49;;;;;;;13.50;10.77;;;24.70;99.90;;;;;;5026184;28;20509;-75
2023/09/12 01:52:15;;;;;;;11.43;10.20;;;24.60;99.90;;;;;;5029549;28;20470;-75
2023/09/12 01:54:42;;;;;;;11.93;10.53;;;24.50;99.90;;;;;;5028355;28;20411;-74
2023/09/12 01:57:08;;;;;;;13.03;10.00;;;24.40;99.90;;;;;;5021037;28;20457;-74
2023/09/12 01:59:34;;;;;;;11.00;9.90;;;24.40;99.90;;;;;;5025594;28;20503;-74
2023/09/12 02:02:00;;;;;;;11.80;10.70;;;24.30;99.90;;;;;;5011183;28;20927;-74
2023/09/12 02:04:25;;;;;;;11.10;9.90;;;24.20;99.90;;;;;;5022936;28;20185;-74
2023/09/12 02:06:51;;;;;;;13.00;10.70;;;24.10;99.90;;;;;;5026429;28;20204;-75
2023/09/12 02:09:16;;;;;;;11.20;10.20;;;24.10;99.90;;;;;;5021796;28;20197;-74
2023/09/12 02:11:42;;;;;;;13.30;10.43;;;24.10;99.90;;;;;;5022111;28;20216;-74
2023/09/12 02:14:07;;;;;;;18.40;12.50;;;24.30;99.90;;;;;;5011360;28;20207;-74
2023/09/12 02:16:37;;;;;;;13.33;10.27;;;24.20;99.90;;;;;;5029959;28;20176;-74
2023/09/12 02:19:03;;;;;;;13.33;10.83;;;24.20;99.90;;;;;;5022283;28;20193;-74
2023/09/12 02:21:29;;;;;;;12.30;11.07;;;24.00;99.90;;;;;;5024558;28;20507;-75
2023/09/12 02:23:55;;;;;;;11.17;10.03;;;24.00;99.90;;;;;;5018255;28;20427;-74
2023/09/12 02:26:20;;;;;;;13.63;11.20;;;24.00;99.90;;;;;;5023309;28;20990;-74
2023/09/12 02:28:46;;;;;;;13.83;10.70;;;24.10;99.90;;;;;;5020157;28;20181;-74
2023/09/12 02:31:12;;;;;;;13.87;10.47;;;24.00;99.90;;;;;;5026230;28;20188;-74
2023/09/12 02:33:38;;;;;;;11.17;10.07;;;24.00;99.90;;;;;;5024458;28;20263;-74
2023/09/12 02:36:05;;;;;;;14.00;12.57;;;23.90;99.90;;;;;;5027487;28;20211;-74
2023/09/12 02:38:30;;;;;;;15.77;11.47;;;23.90;99.90;;;;;;5022684;28;20446;-75
2023/09/12 02:40:56;;;;;;;11.30;9.80;;;23.80;99.90;;;;;;5025221;28;20423;-74
2023/09/12 02:43:22;;;;;;;13.80;10.73;;;23.80;99.90;;;;;;5011873;28;20231;-74
2023/09/12 02:45:47;;;;;;;11.90;10.67;;;23.80;99.90;;;;;;5026443;28;20271;-74
2023/09/12 02:48:13;;;;;;;12.00;10.27;;;23.70;99.90;;;;;;5009710;28;20196;-75
2023/09/12 02:50:40;;;;;;;16.17;10.47;;;23.80;99.90;;;;;;5026190;28;20188;-74
2023/09/12 02:53:06;;;;;;;11.60;10.53;;;23.70;99.90;;;;;;5007482;28;20231;-75
2023/09/12 02:55:32;;;;;;;13.67;11.20;;;23.60;99.90;;;;;;5023276;28;20457;-74
2023/09/12 02:57:58;;;;;;;11.87;10.13;;;23.60;99.90;;;;;;5026277;28;20427;-75
2023/09/12 03:00:23;;;;;;;11.90;10.13;;;23.50;99.90;;;;;;5026587;28;20192;-75
2023/09/12 03:02:49;;;;;;;10.43;9.40;;;23.50;99.90;;;;;;5021789;28;20628;-75
2023/09/12 03:05:14;;;;;;;10.07;9.07;;;23.40;99.90;;;;;;5010017;28;20193;-75
2023/09/12 03:07:40;;;;;;;12.67;11.47;;;23.40;99.90;;;;;;5026159;28;20275;-75
2023/09/12 03:10:06;;;;;;;13.80;10.00;;;23.40;99.90;;;;;;5017832;28;20315;-75
2023/09/12 03:12:32;;;;;;;12.87;9.30;;;23.50;99.90;;;;;;5024389;28;20239;-74
2023/09/12 03:14:57;;;;;;;12.00;9.60;;;23.50;99.90;;;;;;5019921;28;20979;-74
2023/09/12 03:17:23;;;;;;;10.50;9.40;;;23.40;99.90;;;;;;5024906;28;20289;-74
2023/09/12 03:19:48;;;;;;;15.63;10.60;;;23.40;99.90;;;;;;5021574;28;20177;-74
2023/09/12 03:22:14;;;;;;;11.40;9.53;;;23.50;99.90;;;;;;5023659;28;20204;-75
2023/09/12 03:24:39;;;;;;;11.47;9.80;;;23.50;99.90;;;;;;5023965;28;20538;-74
2023/09/12 03:27:05;;;;;;;12.27;9.53;;;23.50;99.90;;;;;;5020464;28;20189;-74
2023/09/12 03:29:30;;;;;;;16.03;10.30;;;23.50;99.90;;;;;;5024190;28;20276;-74
2023/09/12 03:31:56;;;;;;;10.67;9.20;;;23.50;99.90;;;;;;5019501;28;20591;-74
2023/09/12 03:34:22;;;;;;;11.70;9.90;;;23.60;99.90;;;;;;5024316;28;20188;-74
2023/09/12 03:36:47;;;;;;;12.33;10.37;;;23.60;99.90;;;;;;5019301;28;20191;-74
2023/09/12 03:39:13;;;;;;;10.17;9.17;;;23.60;99.90;;;;;;5020402;28;20195;-75
2023/09/12 03:41:39;;;;;;;11.97;9.90;;;23.60;99.90;;;;;;5022530;28;20302;-75
2023/09/12 03:44:05;;;;;;;13.37;10.60;;;23.60;99.90;;;;;;5021100;28;20192;-75
2023/09/12 03:46:30;;;;;;;12.80;9.50;;;23.70;99.90;;;;;;5019399;28;20416;-75
2023/09/12 03:48:56;;;;;;;12.23;10.07;;;23.70;99.90;;;;;;5025497;28;20638;-75
2023/09/12 03:51:22;;;;;;;12.50;9.67;;;23.70;99.90;;;;;;5020515;28;20247;-75
2023/09/12 03:53:49;;;;;;;11.37;10.17;;;23.70;99.90;;;;;;5024238;28;20212;-75
2023/09/12 03:56:15;;;;;;;11.50;9.80;;;23.70;99.90;;;;;;5019692;28;20173;-74
2023/09/12 03:58:41;;;;;;;13.40;10.80;;;23.70;99.90;;;;;;5025907;28;20408;-74
2023/09/12 04:01:07;;;;;;;11.93;10.63;;;23.70;99.90;;;;;;5008081;28;20496;-75
2023/09/12 04:03:32;;;;;;;13.37;10.63;;;23.60;99.90;;;;;;5023759;28;20196;-74
2023/09/12 04:05:58;;;;;;;16.07;11.70;;;23.60;99.90;;;;;;5022442;28;20509;-75
2023/09/12 04:08:23;;;;;;;12.50;11.23;;;23.60;99.90;;;;;;5024955;28;20188;-75
2023/09/12 04:10:49;;;;;;;19.63;11.03;;;23.60;99.90;;;;;;5022235;28;20193;-75
2023/09/12 04:13:15;;;;;;;12.17;10.87;;;23.50;99.90;;;;;;5022371;28;20212;-74
2023/09/12 04:15:40;;;;;;;12.80;11.60;;;23.50;99.90;;;;;;5022702;28;20234;-75
2023/09/12 04:18:06;;;;;;;12.83;11.40;;;23.50;99.90;;;;;;5023852;28;20200;-75
2023/09/12 04:20:32;;;;;;;12.97;11.17;;;23.50;99.90;;;;;;5015804;28;20189;-75
2023/09/12 04:23:00;;;;;;;11.93;10.63;;;23.50;99.90;;;;;;5021047;28;20458;-74
2023/09/12 04:25:26;;;;;;;13.90;12.07;;;23.50;99.90;;;;;;5022990;28;20186;-75
2023/09/12 04:27:52;;;;;;;13.63;10.77;;;23.50;99.90;;;;;;5025184;28;20512;-75
2023/09/12 04:30:17;;;;;;;13.70;11.67;;;23.50;99.90;;;;;;5025589;28;20482;-75
2023/09/12 04:32:43;;;;;;;14.23;11.10;;;23.50;99.90;;;;;;5026879;28;20315;-75
2023/09/12 04:35:08;;;;;;;13.70;10.63;;;23.40;99.90;;;;;;5023788;28;20172;-75
2023/09/12 04:37:35;;;;;;;15.13;11.93;;;23.40;99.90;;;;;;5027108;28;20597;-74
2023/09/12 04:40:00;;;;;;;12.47;11.17;;;23.30;99.90;;;;;;5024331;28;20243;-75
2023/09/12 04:42:26;;;;;;;13.23;11.93;;;23.30;99.90;;;;;;5027902;28;20447;-74
2023/09/12 04:44:52;;;;;;;15.60;12.40;;;23.20;99.90;;;;;;5023317;28;20283;-74
2023/09/12 04:47:18;;;;;;;15.10;12.17;;;23.20;99.90;;;;;;5027137;28;20211;-75
2023/09/12 04:49:44;;;;;;;13.87;12.40;;;23.30;99.90;;;;;;5027377;28;20443;-75
2023/09/12 04:52:09;;;;;;;22.93;12.97;;;23.20;99.90;;;;;;5025181;28;20640;-75
2023/09/12 04:54:36;;;;;;;15.20;13.13;;;23.00;99.90;;;;;;5028423;28;20431;-74
2023/09/12 04:57:02;;;;;;;17.60;13.77;;;22.90;99.90;;;;;;5022579;28;20208;-74
2023/09/12 04:59:27;;;;;;;15.87;12.47;;;22.90;99.90;;;;;;5031652;28;20936;-75
2023/09/12 05:01:53;;;;;;;13.80;12.40;;;22.90;99.90;;;;;;5029763;28;20212;-74
2023/09/12 05:04:19;;;;;;;14.47;13.00;;;22.90;99.90;;;;;;5024498;28;20558;-74
2023/09/12 05:06:45;;;;;;;14.90;11.87;;;22.80;99.90;;;;;;5028063;28;20623;-74
2023/09/12 05:09:10;;;;;;;15.30;13.77;;;22.80;99.90;;;;;;5026491;28;20489;-74
2023/09/12 05:11:36;;;;;;;15.07;12.10;;;22.80;99.90;;;;;;5027991;28;20931;-74
2023/09/12 05:14:05;;;;;;;20.47;13.07;;;22.70;99.90;;;;;;5019647;28;20181;-74
2023/09/12 05:16:30;;;;;;;17.50;12.93;;;22.80;99.90;;;;;;5025932;28;20173;-74
2023/09/12 05:18:56;;;;;;;14.63;13.13;;;22.80;99.90;;;;;;5025713;28;20521;-74
2023/09/12 05:21:21;;;;;;;15.13;13.63;;;22.70;99.90;;;;;;5026675;28;20207;-74
2023/09/12 05:23:47;;;;;;;15.20;12.00;;;22.70;99.90;;;;;;5018166;28;20195;-74
2023/09/12 05:26:13;;;;;;;18.70;11.93;;;22.60;99.90;;;;;;5027737;28;20200;-74
2023/09/12 05:28:39;;;;;;;20.97;14.60;;;22.70;99.90;;;;;;5024029;28;20181;-75
2023/09/12 05:31:04;;;;;;;13.73;12.30;;;22.60;99.90;;;;;;5024152;28;20227;-74
2023/09/12 05:33:30;;;;;;;13.10;11.40;;;22.60;99.90;;;;;;5022723;28;20193;-74
2023/09/12 05:35:55;;;;;;;17.10;13.00;;;22.60;99.90;;;;;;5026618;28;20267;-75
2023/09/12 05:38:21;;;;;;;17.60;11.87;;;22.60;99.90;;;;;;5019193;28;20173;-74
2023/09/12 05:40:49;;;;;;;13.30;11.20;;;22.60;99.90;;;;;;5027872;28;20268;-74
2023/09/12 05:43:16;;;;;;;23.10;12.17;;;22.70;99.90;;;;;;5026205;28;20207;-74
2023/09/12 05:45:41;;;;;;;13.97;11.83;;;22.70;99.90;;;;;;5027255;28;20458;-75
2023/09/12 05:48:07;;;;;;;14.80;12.97;;;22.60;99.90;;;;;;5021778;28;20441;-74
2023/09/12 05:50:33;;;;;;;13.57;12.17;;;22.70;99.90;;;;;;5024554;28;21034;-74
2023/09/12 05:52:58;;;;;;;14.40;12.90;;;22.70;99.90;;;;;;5023335;28;20209;-74
2023/09/12 05:55:24;;;;;;;14.90;11.77;;;22.60;99.90;;;;;;5026036;28;20190;-74
2023/09/12 05:57:53;;;;;;;14.63;13.03;;;22.70;99.90;;;;;;5022062;28;20283;-74
2023/09/12 06:00:19;;;;;;;16.90;12.63;;;22.60;99.90;;;;;;5025179;28;20462;-74
2023/09/12 06:02:46;;;;;;;17.73;12.07;;;22.50;99.90;;;;;;5027016;28;20487;-74
2023/09/12 06:05:11;;;;;;;13.70;12.30;;;22.60;99.90;;;;;;5031479;28;20425;-74
2023/09/12 06:07:39;;;;;;;14.17;12.50;;;22.60;99.90;;;;;;5031082;28;20434;-74
2023/09/12 06:10:04;;;;;;;16.20;11.70;;;22.60;99.90;;;;;;5033240;28;20240;-73
2023/09/12 06:12:32;;;;;;;16.27;12.70;;;22.60;99.90;;;;;;5044544;28;20470;-74
2023/09/12 06:14:58;;;;;;;17.37;12.60;;;22.70;99.90;;;;;;5048584;28;20442;-74
2023/09/12 06:17:24;;;;;;;15.47;13.97;;;22.80;99.90;;;;;;5049914;28;20415;-74
2023/09/12 06:19:49;;;;;;;14.57;12.00;;;22.80;99.90;;;;;;5044048;28;20415;-74
2023/09/12 06:22:17;;;;;;;17.50;12.27;;;22.90;99.90;;;;;;5041217;28;20212;-74
2023/09/12 06:24:43;;;;;;;15.50;13.50;;;22.90;99.90;;;;;;5049720;28;20173;-74
2023/09/12 06:27:09;;;;;;;16.60;12.20;;;22.90;99.90;;;;;;5047611;28;20419;-74
2023/09/12 06:29:35;;;;;;;22.50;13.80;;;22.90;99.90;;;;;;5037389;28;20427;-75
2023/09/12 06:32:02;;;;;;;16.57;12.97;;;23.00;99.90;;;;;;5026413;28;20477;-75
2023/09/12 06:34:27;;;;;;;13.50;12.10;;;23.10;99.90;;;;;;5029139;28;20219;-74
2023/09/12 06:36:53;;;;;;;18.77;12.47;;;23.10;99.90;;;;;;5024975;28;20911;-74
2023/09/12 06:39:19;;;;;;;22.13;14.37;;;23.00;99.90;;;;;;5029058;28;21012;-74
2023/09/12 06:41:44;;;;;;;17.37;13.00;;;23.10;99.90;;;;;;5025116;28;20208;-75
2023/09/12 06:44:10;;;;;;;14.33;11.97;;;23.10;99.90;;;;;;5024826;28;20259;-75
2023/09/12 06:46:37;;;;;;;14.30;12.13;;;23.10;99.90;;;;;;5024327;28;20232;-74
2023/09/12 06:49:03;;;;;;;12.53;11.20;;;23.00;99.90;;;;;;5023376;28;20180;-75
2023/09/12 06:51:28;;;;;;;17.30;11.70;;;23.00;99.90;;;;;;5025584;28;20473;-74
2023/09/12 06:53:54;;;;;;;13.80;11.93;;;23.10;99.90;;;;;;5025961;28;20181;-74
2023/09/12 06:56:21;;;;;;;19.00;12.07;;;23.20;99.90;;;;;;5023840;28;20185;-75
2023/09/12 06:58:47;;;;;;;15.27;11.37;;;23.20;99.90;;;;;;5026259;28;20195;-74
2023/09/12 07:01:13;;;;;;;13.37;11.53;;;23.20;99.90;;;;;;5021114;28;20435;-75
2023/09/12 07:03:38;;;;;;;14.53;12.40;;;23.10;99.90;;;;;;5023659;28;20446;-74
2023/09/12 07:06:05;;;;;;;15.07;13.30;;;23.20;99.90;;;;;;5022259;28;20170;-74
2023/09/12 07:08:32;;;;;;;15.33;11.97;;;23.10;99.90;;;;;;5019203;28;20177;-74
2023/09/12 07:11:05;;;;;;;13.33;11.90;;;23.10;99.90;;;;;;5020597;28;20927;-75
2023/09/12 07:13:31;;;;;;;21.87;12.10;;;23.20;99.90;;;;;;5022936;28;20431;-74
2023/09/12 07:15:57;;;;;;;13.87;12.27;;;23.30;99.90;;;;;;5021144;28;20439;-75
2023/09/12 07:18:23;;;;;;;13.50;12.03;;;23.40;99.90;;;;;;5021161;28;20431;-75
2023/09/12 07:20:57;;;;;;;15.47;11.43;;;23.30;99.90;;;;;;5023602;28;20279;-74
2023/09/12 07:23:23;;;;;;;19.70;12.87;;;23.40;99.90;;;;;;5021809;28;20200;-75
2023/09/12 07:25:48;;;;;;;15.70;11.30;;;23.40;99.90;;;;;;5022147;28;20419;-75
2023/09/12 07:28:14;;;;;;;15.13;13.73;;;23.50;99.90;;;;;;5027884;28;20253;-75
2023/09/12 07:30:40;;;;;;;15.30;12.47;;;23.60;99.90;;;;;;5023850;28;20176;-75
2023/09/12 07:33:06;;;;;;;16.17;11.90;;;23.60;99.90;;;;;;5007067;28;20486;-75
2023/09/12 07:35:31;;;;;;;11.50;10.40;;;23.60;99.90;;;;;;5004046;28;20275;-74
2023/09/12 07:37:57;;;;;;;13.10;11.77;;;23.60;99.90;;;;;;5022621;28;20242;-75
2023/09/12 07:40:22;;;;;;;13.80;11.73;;;23.70;99.90;;;;;;5018886;28;20259;-75
2023/09/12 07:42:48;;;;;;;18.13;12.27;;;23.70;99.90;;;;;;5018312;28;20212;-74
2023/09/12 07:45:14;;;;;;;13.10;11.47;;;23.70;99.90;;;;;;5015938;28;20188;-74
2023/09/12 07:47:39;;;;;;;13.20;11.90;;;23.80;99.90;;;;;;5022336;28;20189;-74
2023/09/12 07:50:06;;;;;;;13.27;11.90;;;23.90;99.90;;;;;;5021051;28;20193;-74
2023/09/12 07:52:34;;;;;;;13.73;12.10;;;23.90;99.90;;;;;;5019558;28;20204;-74
2023/09/12 07:55:00;;;;;;;17.00;11.63;;;23.90;99.90;;;;;;5024853;28;20423;-74
2023/09/12 07:57:26;;;;;;;16.00;11.70;;;24.00;99.90;;;;;;5023821;28;20490;-74
2023/09/12 07:59:51;;;;;;;15.20;11.47;;;24.10;99.90;;;;;;5021623;28;20451;-74
2023/09/12 08:02:17;;;;;;;14.50;11.73;;;24.20;99.90;;;;;;5027979;28;20258;-74
2023/09/12 08:04:43;;;;;;;16.03;14.40;;;24.30;99.90;;;;;;5024380;28;20555;-74
2023/09/12 08:07:08;;;;;;;18.93;13.10;;;24.40;99.90;;;;;;5026442;28;20234;-74
2023/09/12 08:09:49;;;;;;;14.10;12.23;;;24.60;99.90;;;;;;5020315;28;20195;-74
2023/09/12 08:12:14;;;;;;;14.93;12.07;;;24.60;99.90;;;;;;5027638;28;20707;-74
2023/09/12 08:14:40;;;;;;;18.30;12.10;;;24.60;99.90;;;;;;5029099;28;20423;-74
2023/09/12 08:17:05;;;;;;;15.00;12.27;;;24.70;99.90;;;;;;5027837;28;20192;-74
2023/09/12 08:19:31;;;;;;;19.30;11.83;;;24.70;99.90;;;;;;5009880;28;21304;-74
2023/09/12 08:21:57;;;;;;;15.00;13.20;;;24.70;99.90;;;;;;5026840;28;20729;-74
2023/09/12 08:24:22;;;;;;;18.90;11.50;;;24.80;99.90;;;;;;5022706;28;20284;-74
2023/09/12 08:26:48;;;;;;;13.83;12.43;;;24.90;99.90;;;;;;5026740;28;20200;-74
2023/09/12 08:29:13;;;;;;;15.00;11.10;;;25.00;99.90;;;;;;5021418;28;20235;-74
2023/09/12 08:31:39;;;;;;;11.27;9.70;;;25.10;99.90;;;;;;5027476;28;20303;-74
2023/09/12 08:34:04;;;;;;;18.93;10.70;;;25.30;99.90;;;;;;5008955;28;20598;-74
2023/09/12 08:36:30;;;;;;;14.20;10.70;;;25.20;99.90;;;;;;5026388;28;20219;-74
2023/09/12 08:38:55;;;;;;;16.53;11.67;;;25.30;99.90;;;;;;5026800;28;20286;-74
2023/09/12 08:41:21;;;;;;;13.33;11.20;;;25.50;99.90;;;;;;5024689;28;20180;-74
2023/09/12 08:43:48;;;;;;;14.07;11.20;;;25.40;99.90;;;;;;5023718;28;20613;-74
2023/09/12 08:46:15;;;;;;;12.40;10.80;;;25.40;99.90;;;;;;5029153;28;20271;-74
2023/09/12 08:48:42;;;;;;;15.83;10.60;;;25.50;99.90;;;;;;5023404;28;20454;-74
2023/09/12 08:51:09;;;;;;;15.37;10.27;;;25.60;99.90;;;;;;5026955;28;20441;-74
2023/09/12 08:53:36;;;;;;;17.27;11.47;;;25.70;99.90;;;;;;5025681;28;20516;-74
2023/09/12 08:56:03;;;;;;;11.33;10.33;;;25.70;99.90;;;;;;5026224;28;20438;-74
2023/09/12 08:58:31;;;;;;;12.33;11.00;;;25.70;99.90;;;;;;5024305;28;20476;-74
2023/09/12 09:00:56;;;;;;;12.90;11.60;;;25.70;99.90;;;;;;5016413;28;20435;-74
2023/09/12 09:03:24;;;;;;;16.90;10.97;;;25.80;99.90;;;;;;5024158;28;20435;-74
2023/09/12 09:05:51;;;;;;;16.70;11.90;;;25.80;99.90;;;;;;5023307;28;20183;-74
2023/09/12 09:08:18;;;;;;;12.33;10.97;;;25.90;99.90;;;;;;5021975;28;20544;-74
2023/09/12 09:11:03;;;;;;;16.63;11.60;;;25.90;99.90;;;;;;5026358;28;20553;-74
2023/09/12 09:13:29;;;;;;;13.87;11.37;;;25.90;99.90;;;;;;5027516;28;20463;-74
2023/09/12 09:16:15;;;;;;;14.37;10.40;;;25.90;99.90;;;;;;5023374;28;20434;-74
2023/09/12 09:18:59;;;;;;;15.50;12.07;;;25.90;99.90;;;;;;5019599;28;20538;-75
2023/09/12 09:21:30;;;;;;;13.10;11.97;;;26.00;99.90;;;;;;5027692;28;20438;-74
2023/09/12 09:23:59;;;;;;;13.33;12.03;;;26.00;99.90;;;;;;5027705;28;20418;-74
2023/09/12 09:26:24;;;;;;;12.77;10.93;;;26.20;99.90;;;;;;5026646;28;20423;-74
2023/09/12 09:29:10;;;;;;;13.40;11.97;;;26.20;99.90;;;;;;5018540;28;20984;-74
2023/09/12 09:31:41;;;;;;;12.37;11.07;;;26.20;99.90;;;;;;5026845;28;20295;-74
2023/09/12 09:34:12;;;;;;;12.17;10.83;;;26.20;99.90;;;;;;5026461;28;20419;-74
2023/09/12 09:36:42;;;;;;;13.97;10.53;;;26.20;99.90;;;;;;5020195;28;20479;-74
2023/09/12 09:39:07;;;;;;;16.50;11.67;;;26.20;99.90;;;;;;5026337;28;20480;-74
2023/09/12 09:41:33;;;;;;;14.57;12.40;;;26.30;99.90;;;;;;5026639;28;20448;-74
2023/09/12 09:43:59;;;;;;;14.90;12.00;;;26.30;99.90;;;;;;5027231;28;20279;-74
2023/09/12 09:46:25;;;;;;;13.87;11.23;;;26.30;99.90;;;;;;5026878;28;20195;-74
2023/09/12 09:48:51;;;;;;;12.47;11.20;;;26.40;99.90;;;;;;5026627;28;20435;-74
2023/09/12 09:51:18;;;;;;;12.07;10.47;;;26.50;99.90;;;;;;5021107;28;20216;-74
2023/09/12 09:53:43;;;;;;;14.00;11.43;;;26.50;99.90;;;;;;5025562;28;20435;-74
2023/09/12 09:56:14;;;;;;;13.50;12.10;;;26.60;99.90;;;;;;5024904;28;20434;-74
2023/09/12 09:58:51;;;;;;;12.57;11.30;;;26.60;99.90;;;;;;5024736;28;20176;-74
2023/09/12 10:01:19;;;;;;;12.13;10.87;;;26.60;99.90;;;;;;5022379;28;20411;-74
2023/09/12 10:03:50;;;;;;;14.70;12.40;;;26.60;99.90;;;;;;5025919;28;20415;-75
2023/09/12 10:06:17;;;;;;;14.30;11.90;;;26.70;99.90;;;;;;5021699;28;20916;-75
2023/09/12 10:08:50;;;;;;;13.77;12.17;;;26.70;99.90;;;;;;5024019;28;20442;-74
2023/09/12 10:11:17;;;;;;;12.10;10.90;;;26.80;99.90;;;;;;5028015;28;20485;-75
2023/09/12 10:14:02;;;;;;;12.70;11.40;;;26.80;99.90;;;;;;5027840;28;20513;-75
2023/09/12 10:16:48;;;;;;;13.17;11.70;;;26.80;99.90;;;;;;5029702;28;20457;-75
2023/09/12 10:19:18;;;;;;;10.87;9.83;;;26.90;99.90;;;;;;5030964;28;20459;-75
2023/09/12 10:22:23;;;;;;;12.43;11.00;;;27.10;99.90;;;;;;5027145;28;20495;-74
2023/09/12 10:24:50;;;;;;;12.30;10.83;;;27.10;99.90;;;;;;5028339;28;20842;-75
2023/09/12 10:27:18;;;;;;;15.30;10.70;;;27.20;99.90;;;;;;5030290;28;20420;-74
2023/09/12 10:29:47;;;;;;;12.37;11.10;;;27.30;99.90;;;;;;5030078;28;20437;-74
2023/09/12 10:32:14;;;;;;;12.63;10.70;;;27.30;99.90;;;;;;5024794;28;20672;-74
2023/09/12 10:34:44;;;;;;;11.97;10.80;;;27.20;99.90;;;;;;5025013;28;20790;-75
2023/09/12 10:37:15;;;;;;;12.80;11.03;;;27.30;99.90;;;;;;5023214;28;20840;-74
2023/09/12 10:39:43;;;;;;;12.13;10.93;;;27.40;99.90;;;;;;5020621;28;20885;-74
2023/09/12 10:42:10;;;;;;;13.83;11.60;;;27.40;99.90;;;;;;5041009;28;20506;-75
2023/09/12 10:44:36;;;;;;;12.33;10.47;;;27.50;99.90;;;;;;5023635;28;20427;-75
2023/09/12 10:47:03;;;;;;;12.03;10.60;;;27.60;99.90;;;;;;5019694;28;20439;-75
2023/09/12 10:49:30;;;;;;;10.83;9.73;;;27.60;99.90;;;;;;5017764;28;20424;-74
2023/09/12 10:51:57;;;;;;;17.40;10.63;;;27.70;99.90;;;;;;5022611;28;20467;-74
2023/09/12 10:54:37;;;;;;;11.50;10.10;;;27.70;99.90;;;;;;5024141;28;20424;-74
2023/09/12 10:57:13;;;;;;;12.97;10.60;;;27.80;99.90;;;;;;5019896;28;20817;-74
2023/09/12 10:59:59;;;;;;;18.83;11.57;;;27.80;99.90;;;;;;5002024;28;20455;-74
2023/09/12 11:02:36;;;;;;;11.30;10.20;;;27.90;99.90;;;;;;5010511;28;20455;-74
2023/09/12 11:05:06;;;;;;;11.03;9.70;;;28.00;99.90;;;;;;5022312;28;20443;-75
2023/09/12 11:07:37;;;;;;;11.00;10.00;;;28.00;99.90;;;;;;5007407;28;20475;-74
2023/09/12 11:10:16;;;;;;;11.63;10.60;;;28.10;99.90;;;;;;5025057;28;20431;-74
2023/09/12 11:12:42;;;;;;;15.30;10.03;;;28.20;99.90;;;;;;5034628;28;20528;-74
2023/09/12 11:15:10;;;;;;;11.43;10.30;;;28.30;99.90;;;;;;5024806;28;20451;-74
2023/09/12 11:17:40;;;;;;;14.83;10.27;;;28.50;99.90;;;;;;5024384;28;20420;-74
2023/09/12 11:20:10;;;;;;;15.23;9.97;;;28.60;99.90;;;;;;5023900;28;20858;-75
2023/09/12 11:22:43;;;;;;;11.60;10.53;;;28.60;99.90;;;;;;5012010;28;20454;-74
2023/09/12 11:25:26;;;;;;;16.27;10.23;;;28.70;99.90;;;;;;5008072;28;20513;-74
2023/09/12 11:27:51;;;;;;;10.73;9.20;;;28.80;99.90;;;;;;5020470;28;20430;-75
2023/09/12 11:30:18;;;;;;;13.40;9.80;;;28.90;99.90;;;;;;5020793;28;20865;-75
2023/09/12 11:32:47;;;;;;;11.87;10.63;;;29.00;99.90;;;;;;5020245;28;20220;-75
2023/09/12 11:35:14;;;;;;;10.20;9.20;;;29.10;99.90;;;;;;5014690;28;20419;-74
2023/09/12 11:37:48;;;;;;;10.63;8.80;;;29.30;99.90;;;;;;5021943;28;20431;-74
2023/09/12 11:40:14;;;;;;;12.07;9.33;;;29.40;99.90;;;;;;5020802;28;20772;-74
2023/09/12 11:42:40;;;;;;;13.20;10.13;;;29.50;99.90;;;;;;5023464;28;20522;-74
2023/09/12 11:45:10;;;;;;;10.33;9.37;;;29.60;99.90;;;;;;5018460;28;20192;-75
2023/09/12 11:47:42;;;;;;;8.97;8.13;;;29.70;99.90;;;;;;5021494;28;20492;-73
2023/09/12 11:50:27;;;;;;;14.00;9.17;;;29.90;99.90;;;;;;5023661;28;20456;-74
2023/09/12 11:53:01;;;;;;;10.27;9.17;;;29.90;99.20;;;;;;5020658;28;20548;-74
2023/09/12 11:55:30;;;;;;;10.63;9.63;;;30.20;99.30;;;;;;5022121;28;20461;-74
2023/09/12 11:57:56;;;;;;;10.13;8.43;;;30.40;99.50;;;;;;5022467;28;20795;-74
2023/09/12 12:00:22;;;;;;;12.30;8.90;;;30.70;98.20;;;;;;5022255;28;20802;-74
2023/09/12 12:02:48;;;;;;;10.93;8.67;;;31.00;96.60;;;;;;5024479;28;20449;-74
2023/09/12 12:05:13;;;;;;;10.17;9.20;;;31.40;95.90;;;;;;5023547;28;20275;-74
2023/09/12 12:07:39;;;;;;;8.97;8.07;;;31.90;95.20;;;;;;5023242;28;20231;-74
2023/09/12 12:10:05;;;;;;;11.73;7.80;;;32.30;93.60;;;;;;5023526;28;20195;-74
2023/09/12 12:12:31;;;;;;;9.50;8.60;;;32.60;91.30;;;;;;5026465;28;20204;-74
2023/09/12 12:14:57;;;;;;;9.17;8.10;;;32.90;91.10;;;;;;5024109;28;20386;-74
2023/09/12 12:17:22;;;;;;;8.60;7.80;;;33.20;90.60;;;;;;5022780;28;20177;-74
2023/09/12 12:19:48;;;;;;;9.70;8.30;;;33.50;88.50;;;;;;5020939;28;20765;-75
2023/09/12 12:22:14;;;;;;;9.50;8.70;;;33.50;86.60;;;;;;5023142;28;20204;-74
2023/09/12 12:24:41;;;;;;;10.67;8.40;;;33.70;85.90;;;;;;5023237;28;20260;-75
2023/09/12 12:27:09;;;;;;;10.10;9.10;;;34.00;86.20;;;;;;5024669;28;20268;-75
2023/09/12 12:29:37;;;;;;;9.87;8.97;;;34.00;83.80;;;;;;5022962;28;20406;-75
2023/09/12 12:32:05;;;;;;;9.23;8.30;;;34.10;82.60;;;;;;5018989;28;20449;-75